Time;durP1;ratioP1;P1;durP2;ratioP2;P2;SDS_P1;SDS_P2;PMS_P1;PMS_P2;Temp;Humidity;BMP_temperature;BMP_pressure;BME280_temperature;BME280_humidity;BME280_pressure;Samples;Min_cycle;Max_cycle;Signal;HPM_P1;HPM_P2
2022/09/10 00:01:51;;;;;;;43.45;24.05;;;19.70;99.90;;;;;;5114395;28;20031;-57
2022/09/10 00:04:17;;;;;;;42.85;22.35;;;19.60;99.90;;;;;;5114942;28;20035;-57
2022/09/10 00:06:43;;;;;;;38.67;21.83;;;19.70;99.90;;;;;;5114662;28;20039;-57
2022/09/10 00:09:11;;;;;;;36.45;20.35;;;19.70;99.90;;;;;;5114744;28;20020;-57
2022/09/10 00:11:39;;;;;;;33.35;18.92;;;19.70;99.90;;;;;;5114684;28;20143;-57
2022/09/10 00:14:09;;;;;;;34.72;19.83;;;19.70;99.90;;;;;;5114688;28;20080;-57
2022/09/10 00:16:35;;;;;;;34.33;20.67;;;19.80;99.90;;;;;;5114769;28;20512;-57
2022/09/10 00:19:01;;;;;;;34.58;20.42;;;19.70;99.90;;;;;;5114733;28;20061;-56
2022/09/10 00:21:28;;;;;;;36.92;20.02;;;19.70;99.90;;;;;;5114417;28;20019;-57
2022/09/10 00:23:55;;;;;;;34.47;20.10;;;19.70;99.90;;;;;;5114936;28;20113;-57
2022/09/10 00:26:25;;;;;;;59.00;21.33;;;19.60;99.90;;;;;;5114610;28;20023;-57
2022/09/10 00:28:53;;;;;;;38.72;20.58;;;19.40;99.90;;;;;;5114694;28;20032;-57
2022/09/10 00:31:21;;;;;;;43.92;20.73;;;19.30;99.90;;;;;;5114649;28;20023;-57
2022/09/10 00:33:49;;;;;;;37.83;21.30;;;19.20;99.90;;;;;;5114560;28;20054;-56
2022/09/10 00:36:18;;;;;;;56.97;22.33;;;19.30;99.90;;;;;;5114469;28;20473;-57
2022/09/10 00:38:45;;;;;;;74.05;22.85;;;19.30;99.90;;;;;;5113292;28;20032;-57
2022/09/10 00:41:12;;;;;;;51.25;24.05;;;19.10;99.90;;;;;;5114349;28;20020;-57
2022/09/10 00:43:45;;;;;;;75.25;24.52;;;19.20;99.90;;;;;;5114538;28;20068;-57
2022/09/10 00:46:11;;;;;;;42.80;23.23;;;19.10;99.90;;;;;;5114375;28;20041;-57
2022/09/10 00:48:37;;;;;;;43.28;23.83;;;19.10;99.90;;;;;;5116920;28;20042;-57
2022/09/10 00:51:04;;;;;;;39.85;24.20;;;19.10;99.90;;;;;;5116874;28;20043;-57
2022/09/10 00:53:32;;;;;;;42.35;23.55;;;19.10;99.90;;;;;;5118255;28;20046;-57
2022/09/10 00:56:04;;;;;;;42.47;23.48;;;19.30;99.90;;;;;;5116949;28;20335;-57
2022/09/10 00:58:30;;;;;;;43.38;22.95;;;19.30;99.90;;;;;;5116821;28;20396;-57
2022/09/10 01:01:01;;;;;;;40.33;23.73;;;19.30;99.90;;;;;;5118017;27;20446;-57
2022/09/10 01:03:30;;;;;;;;;;;19.40;99.90;;;;;;5118649;28;20023;-57
2022/09/10 01:05:57;;;;;;;46.53;24.33;;;19.40;99.90;;;;;;5117958;28;19908;-57
2022/09/10 01:08:23;;;;;;;45.13;24.27;;;19.10;99.90;;;;;;5118009;28;20076;-57
2022/09/10 01:11:05;;;;;;;39.35;23.17;;;19.10;99.90;;;;;;5116641;28;20396;-57
2022/09/10 01:13:53;;;;;;;52.78;25.02;;;19.20;99.90;;;;;;5117838;28;20073;-57
2022/09/10 01:16:55;;;;;;;46.30;24.02;;;19.20;99.90;;;;;;5116553;28;20092;-57
2022/09/10 01:19:53;;;;;;;46.97;24.55;;;19.10;99.90;;;;;;5115174;28;20114;-56
2022/09/10 01:22:38;;;;;;;54.30;25.08;;;19.20;99.90;;;;;;5116395;28;20101;-57
2022/09/10 01:25:07;;;;;;;42.17;21.98;;;19.20;99.90;;;;;;5116203;28;20039;-57
2022/09/10 01:27:40;;;;;;;29.25;17.10;;;19.20;99.90;;;;;;5116318;28;20031;-57
2022/09/10 01:30:08;;;;;;;29.33;16.05;;;19.20;99.90;;;;;;5116326;28;20024;-57
2022/09/10 01:32:45;;;;;;;30.02;16.92;;;19.10;99.90;;;;;;5116378;28;20047;-57
2022/09/10 01:35:19;;;;;;;32.58;18.45;;;19.10;99.90;;;;;;5117534;28;20381;-57
2022/09/10 01:37:54;;;;;;;40.30;18.92;;;19.20;99.90;;;;;;5116062;28;20035;-57
2022/09/10 01:40:28;;;;;;;34.72;18.92;;;19.30;99.90;;;;;;5116145;28;20115;-57
2022/09/10 01:43:06;;;;;;;33.70;18.27;;;19.20;99.90;;;;;;5116071;28;20114;-57
2022/09/10 01:45:51;;;;;;;56.13;18.98;;;19.30;99.90;;;;;;5116074;28;20032;-57
2022/09/10 01:48:39;;;;;;;32.70;19.45;;;19.20;99.90;;;;;;5115961;28;20034;-57
2022/09/10 01:51:20;;;;;;;34.45;17.92;;;19.20;99.90;;;;;;5117103;28;20382;-57
2022/09/10 01:53:58;;;;;;;29.80;19.20;;;19.20;99.90;;;;;;5115847;28;20030;-57
2022/09/10 01:57:01;;;;;;;28.88;17.52;;;19.20;99.90;;;;;;5115930;28;20039;-57
2022/09/10 01:59:53;;;;;;;53.97;18.08;;;19.30;99.90;;;;;;5091043;28;20032;-57
2022/09/10 02:02:47;;;;;;;69.60;16.17;;;19.20;99.90;;;;;;5115584;28;20028;-57
2022/09/10 02:05:16;;;;;;;31.73;14.75;;;19.10;99.90;;;;;;5115724;28;20111;-57
2022/09/10 02:07:45;;;;;;;24.08;14.02;;;19.10;99.90;;;;;;5115446;28;20054;-57
2022/09/10 02:10:14;;;;;;;28.95;15.32;;;19.10;99.90;;;;;;5115529;28;20027;-57
2022/09/10 02:12:44;;;;;;;30.67;14.20;;;19.00;99.90;;;;;;5115483;28;20481;-57
2022/09/10 02:15:30;;;;;;;33.05;15.48;;;18.90;99.90;;;;;;5117114;28;20042;-57
2022/09/10 02:18:08;;;;;;;28.50;14.70;;;18.90;99.90;;;;;;5115452;28;20028;-57
2022/09/10 02:20:34;;;;;;;32.88;16.65;;;18.90;99.90;;;;;;5115237;28;20031;-57
2022/09/10 02:23:02;;;;;;;67.72;17.80;;;18.90;99.90;;;;;;5115191;28;20038;-57
2022/09/10 02:25:32;;;;;;;32.30;17.67;;;18.90;99.90;;;;;;5116529;27;20032;-57
2022/09/10 02:28:00;;;;;;;54.38;18.88;;;18.80;99.90;;;;;;5115190;28;20028;-57
2022/09/10 02:30:26;;;;;;;34.28;19.75;;;18.80;99.90;;;;;;5116459;28;20024;-57
2022/09/10 02:32:52;;;;;;;64.07;19.15;;;18.80;99.90;;;;;;5115294;28;20023;-57
2022/09/10 02:35:19;;;;;;;57.05;18.67;;;18.70;99.90;;;;;;5115037;28;20076;-57
2022/09/10 02:37:48;;;;;;;29.50;14.70;;;18.60;99.90;;;;;;5116148;28;20035;-56
2022/09/10 02:40:17;;;;;;;24.73;13.10;;;18.60;99.90;;;;;;5116324;28;20051;-57
2022/09/10 02:42:45;;;;;;;31.10;13.82;;;18.80;99.90;;;;;;5114910;28;20484;-57
2022/09/10 02:45:13;;;;;;;32.17;13.20;;;18.80;99.90;;;;;;5114993;28;20027;-57
2022/09/10 02:47:39;;;;;;;24.63;12.88;;;18.80;99.90;;;;;;5116058;28;20077;-57
2022/09/10 02:50:07;;;;;;;26.75;12.85;;;18.80;99.90;;;;;;5115953;28;20069;-57
2022/09/10 02:52:33;;;;;;;23.38;11.13;;;18.70;99.90;;;;;;5114741;28;20063;-56
2022/09/10 02:55:00;;;;;;;23.73;10.80;;;18.80;99.90;;;;;;5116248;28;20103;-56
2022/09/10 02:57:26;;;;;;;29.13;9.60;;;18.80;99.90;;;;;;5114600;28;20039;-57
2022/09/10 02:59:55;;;;;;;27.25;7.40;;;18.80;99.90;;;;;;5115798;28;20024;-56
2022/09/10 03:02:22;;;;;;;26.05;9.68;;;18.70;99.90;;;;;;5114806;28;20028;-57
2022/09/10 03:04:48;;;;;;;24.95;9.93;;;18.60;99.90;;;;;;5115819;28;20111;-57
2022/09/10 03:07:16;;;;;;;45.10;13.13;;;18.50;99.90;;;;;;5116040;28;20118;-57
2022/09/10 03:09:43;;;;;;;62.33;19.00;;;18.50;99.90;;;;;;5114864;28;20027;-56
2022/09/10 03:12:09;;;;;;;111.38;25.33;;;18.50;99.90;;;;;;5114376;28;20059;-57
2022/09/10 03:14:35;;;;;;;142.25;30.45;;;18.50;99.90;;;;;;5115674;28;20507;-57
2022/09/10 03:17:02;;;;;;;119.22;31.33;;;18.50;99.90;;;;;;5115642;28;20023;-57
2022/09/10 03:19:28;;;;;;;127.50;33.65;;;18.50;99.90;;;;;;5114402;28;20084;-57
2022/09/10 03:21:54;;;;;;;125.25;34.85;;;18.60;99.90;;;;;;5115272;28;20473;-56
2022/09/10 03:24:21;;;;;;;125.43;36.22;;;18.60;99.90;;;;;;5115492;28;20118;-57
2022/09/10 03:26:47;;;;;;;134.60;35.58;;;18.60;99.90;;;;;;5113914;28;20031;-56
2022/09/10 03:29:14;;;;;;;127.28;36.08;;;18.60;99.90;;;;;;5115551;28;20032;-57
2022/09/10 03:31:41;;;;;;;122.47;35.08;;;18.70;99.90;;;;;;5115292;28;20030;-56
2022/09/10 03:34:11;;;;;;;130.70;36.85;;;18.70;99.90;;;;;;5115294;28;20027;-56
2022/09/10 03:36:38;;;;;;;129.38;36.25;;;18.80;99.90;;;;;;5113990;28;20118;-57
2022/09/10 03:39:06;;;;;;;99.15;32.83;;;18.80;99.90;;;;;;5113955;28;20031;-56
2022/09/10 03:41:32;;;;;;;102.72;33.53;;;18.80;99.90;;;;;;5113904;28;20552;-56
2022/09/10 03:43:58;;;;;;;89.45;31.17;;;18.70;99.90;;;;;;5114015;28;20080;-57
2022/09/10 03:46:26;;;;;;;87.88;30.70;;;18.80;99.90;;;;;;5113603;28;20066;-57
2022/09/10 03:48:54;;;;;;;73.03;30.13;;;18.80;99.90;;;;;;5113744;28;20028;-57
2022/09/10 03:51:22;;;;;;;84.93;31.85;;;18.90;99.90;;;;;;5113620;28;20045;-56
2022/09/10 03:53:48;;;;;;;90.75;31.77;;;18.90;99.90;;;;;;5115054;28;20047;-57
2022/09/10 03:56:18;;;;;;;76.53;28.95;;;18.90;99.90;;;;;;5113646;28;20084;-57
2022/09/10 03:58:45;;;;;;;76.78;30.88;;;18.90;99.90;;;;;;5113728;28;20459;-57
2022/09/10 04:01:12;;;;;;;56.75;25.80;;;18.90;99.90;;;;;;5114620;28;20027;-56
2022/09/10 04:03:41;;;;;;;34.67;18.70;;;18.90;99.90;;;;;;5113646;28;20028;-56
2022/09/10 04:06:11;;;;;;;36.45;17.73;;;19.00;99.90;;;;;;5115154;28;20083;-57
2022/09/10 04:08:39;;;;;;;29.13;14.45;;;18.90;99.90;;;;;;5113464;28;20038;-56
2022/09/10 04:11:08;;;;;;;30.20;14.70;;;18.90;99.90;;;;;;5114867;28;20093;-57
2022/09/10 04:13:34;;;;;;;26.02;13.05;;;18.90;99.90;;;;;;5113445;28;20397;-57
2022/09/10 04:16:02;;;;;;;20.73;11.38;;;18.90;99.90;;;;;;5113558;28;20110;-56
2022/09/10 04:18:30;;;;;;;20.48;10.80;;;18.90;99.90;;;;;;5113496;28;20027;-56
2022/09/10 04:20:57;;;;;;;21.85;10.50;;;18.90;99.90;;;;;;5114164;28;20027;-56
2022/09/10 04:23:23;;;;;;;17.05;10.00;;;18.90;99.90;;;;;;5117726;28;20055;-56
2022/09/10 04:25:49;;;;;;;16.30;9.85;;;19.00;99.90;;;;;;5117600;28;20354;-56
2022/09/10 04:28:15;;;;;;;14.52;9.02;;;18.90;99.90;;;;;;5117349;28;20032;-57
2022/09/10 04:30:44;;;;;;;11.60;7.45;;;18.90;99.90;;;;;;5117927;28;20043;-56
2022/09/10 04:33:11;;;;;;;14.63;6.65;;;18.90;99.90;;;;;;5118777;28;20090;-57
2022/09/10 04:35:42;;;;;;;11.15;5.95;;;18.80;99.90;;;;;;5117268;28;20534;-56
2022/09/10 04:38:08;;;;;;;10.27;5.90;;;18.90;99.90;;;;;;5117351;28;20035;-56
2022/09/10 04:40:37;;;;;;;8.45;5.78;;;18.90;99.90;;;;;;5117210;28;20028;-56
2022/09/10 04:43:03;;;;;;;9.00;5.45;;;18.80;99.90;;;;;;5118625;28;20385;-56
2022/09/10 04:45:33;;;;;;;10.23;5.63;;;18.90;99.90;;;;;;5117257;28;20031;-56
2022/09/10 04:48:00;;;;;;;7.80;4.57;;;18.90;99.90;;;;;;5117051;28;20028;-56
2022/09/10 04:50:26;;;;;;;9.38;4.97;;;18.80;99.90;;;;;;5116925;28;20047;-57
2022/09/10 04:53:06;;;;;;;8.93;4.65;;;18.90;99.90;;;;;;5117052;28;20100;-56
2022/09/10 04:55:38;;;;;;;8.38;5.10;;;18.80;99.90;;;;;;5117136;28;20081;-56
2022/09/10 04:58:04;;;;;;;6.47;4.90;;;18.80;99.90;;;;;;5118522;28;20027;-56
2022/09/10 05:00:31;;;;;;;9.18;4.43;;;18.80;99.90;;;;;;5117150;28;20035;-56
2022/09/10 05:02:57;;;;;;;11.93;4.75;;;18.70;99.90;;;;;;5116907;28;20050;-57
2022/09/10 05:05:24;;;;;;;9.27;4.35;;;18.80;99.90;;;;;;5116791;28;20401;-56
2022/09/10 05:07:51;;;;;;;9.30;4.30;;;18.80;99.90;;;;;;5117993;28;20027;-56
2022/09/10 05:10:19;;;;;;;7.20;3.83;;;18.90;99.90;;;;;;5116819;28;20480;-56
2022/09/10 05:12:45;;;;;;;5.72;3.67;;;18.80;99.90;;;;;;5116596;28;20055;-56
2022/09/10 05:15:11;;;;;;;7.95;3.85;;;18.80;99.90;;;;;;5116784;28;20157;-56
2022/09/10 05:17:37;;;;;;;7.93;3.83;;;18.80;99.90;;;;;;5117951;28;20144;-56
2022/09/10 05:20:06;;;;;;;6.28;4.10;;;18.80;99.90;;;;;;5118042;28;20032;-56
2022/09/10 05:22:36;;;;;;;9.18;4.18;;;18.80;99.90;;;;;;5116318;28;20043;-56
2022/09/10 05:25:03;;;;;;;9.55;4.30;;;18.80;99.90;;;;;;5116528;28;20061;-56
2022/09/10 05:27:29;;;;;;;10.15;4.72;;;18.80;99.90;;;;;;5117616;28;20085;-56
2022/09/10 05:29:56;;;;;;;12.70;5.40;;;18.80;99.90;;;;;;5099392;28;20031;-56
2022/09/10 05:32:23;;;;;;;13.88;6.13;;;18.80;99.90;;;;;;5115289;28;20045;-56
2022/09/10 05:34:49;;;;;;;27.70;18.65;;;18.80;99.90;;;;;;5116105;28;20110;-56
2022/09/10 05:37:17;;;;;;;22.23;14.90;;;18.80;99.90;;;;;;5117503;28;20477;-56
2022/09/10 05:39:47;;;;;;;24.23;14.18;;;18.80;99.90;;;;;;5116089;28;20035;-56
2022/09/10 05:42:14;;;;;;;18.63;9.90;;;18.80;99.90;;;;;;5116099;28;20043;-56
2022/09/10 05:44:40;;;;;;;14.88;10.57;;;18.80;99.90;;;;;;5116108;28;20127;-56
2022/09/10 05:47:07;;;;;;;17.15;10.23;;;18.80;99.90;;;;;;5116066;28;20027;-56
2022/09/10 05:49:33;;;;;;;19.38;9.60;;;18.80;99.90;;;;;;5115872;28;20038;-56
2022/09/10 05:52:01;;;;;;;15.95;9.55;;;18.70;99.90;;;;;;5115820;28;20040;-56
2022/09/10 05:54:27;;;;;;;14.82;9.23;;;18.80;99.90;;;;;;5115785;28;20073;-56
2022/09/10 05:56:53;;;;;;;21.17;10.27;;;19.00;99.90;;;;;;5117469;28;20028;-56
2022/09/10 05:59:19;;;;;;;19.67;11.20;;;19.10;99.90;;;;;;5117171;28;20024;-56
2022/09/10 06:01:50;;;;;;;17.25;9.30;;;19.10;99.90;;;;;;5115494;28;20077;-56
2022/09/10 06:04:18;;;;;;;17.92;10.18;;;19.10;99.90;;;;;;5115626;28;20036;-56
2022/09/10 06:06:46;;;;;;;18.45;10.68;;;19.10;99.90;;;;;;5115680;28;20023;-56
2022/09/10 06:09:13;;;;;;;17.58;10.20;;;19.10;99.90;;;;;;5115425;28;20020;-56
2022/09/10 06:11:48;;;;;;;19.70;9.35;;;19.30;99.90;;;;;;5115496;28;20069;-56
2022/09/10 06:14:14;;;;;;;18.63;9.55;;;19.40;99.90;;;;;;5115541;28;20123;-56
2022/09/10 06:16:41;;;;;;;22.13;9.82;;;19.50;99.90;;;;;;5115297;28;20032;-56
2022/09/10 06:19:07;;;;;;;18.35;8.63;;;19.60;99.90;;;;;;5115372;28;20035;-56
2022/09/10 06:21:34;;;;;;;16.67;8.20;;;19.60;99.90;;;;;;5115059;28;20614;-56
2022/09/10 06:24:01;;;;;;;19.00;8.73;;;19.70;99.90;;;;;;5115102;28;20027;-56
2022/09/10 06:26:31;;;;;;;18.67;9.68;;;19.80;99.90;;;;;;5115246;28;20036;-56
2022/09/10 06:29:02;;;;;;;18.30;9.60;;;19.80;99.90;;;;;;5115096;28;20024;-56
2022/09/10 06:31:29;;;;;;;15.48;8.32;;;19.80;99.90;;;;;;5115157;28;20035;-56
2022/09/10 06:33:57;;;;;;;17.38;7.65;;;19.80;99.90;;;;;;5098358;28;20076;-56
2022/09/10 06:36:30;;;;;;;15.33;6.83;;;19.90;99.90;;;;;;5114951;28;20032;-56
2022/09/10 06:38:56;;;;;;;10.50;4.80;;;20.00;99.90;;;;;;5114963;28;20034;-56
2022/09/10 06:41:23;;;;;;;7.88;4.50;;;20.10;99.90;;;;;;5116064;28;20053;-56
2022/09/10 06:43:57;;;;;;;7.38;3.85;;;20.20;99.90;;;;;;5114570;28;20062;-56
2022/09/10 06:46:41;;;;;;;7.97;4.10;;;20.20;99.90;;;;;;5114772;28;20043;-56
2022/09/10 06:49:13;;;;;;;9.70;3.60;;;20.30;99.90;;;;;;5114562;28;20114;-56
2022/09/10 06:51:43;;;;;;;6.82;3.25;;;20.40;99.90;;;;;;5114593;28;20052;-56
2022/09/10 06:54:11;;;;;;;7.07;4.00;;;20.50;99.90;;;;;;5114737;28;20030;-56
2022/09/10 06:56:40;;;;;;;5.70;3.35;;;20.50;99.90;;;;;;5114738;28;20118;-56
2022/09/10 06:59:07;;;;;;;7.72;3.67;;;20.60;99.90;;;;;;5116185;28;20057;-56
2022/09/10 07:01:38;;;;;;;10.63;3.97;;;20.80;99.90;;;;;;5114374;28;20047;-56
2022/09/10 07:04:05;;;;;;;10.48;4.68;;;21.30;99.90;;;;;;5114505;28;20130;-56
2022/09/10 07:06:34;;;;;;;9.63;5.32;;;22.10;99.90;;;;;;5114273;28;20031;-56
2022/09/10 07:09:11;;;;;;;12.98;6.00;;;22.80;99.90;;;;;;5114334;28;20080;-57
2022/09/10 07:11:46;;;;;;;9.93;5.20;;;23.50;99.90;;;;;;5114323;28;20027;-57
2022/09/10 07:14:13;;;;;;;13.48;6.30;;;24.10;99.90;;;;;;5114268;28;20057;-57
2022/09/10 07:16:43;;;;;;;10.40;5.85;;;24.20;99.90;;;;;;5115594;28;20032;-57
2022/09/10 07:19:13;;;;;;;11.18;5.70;;;24.50;99.90;;;;;;5114263;28;20027;-57
2022/09/10 07:21:43;;;;;;;22.13;10.30;;;25.00;99.30;;;;;;5114127;28;20090;-57
2022/09/10 07:24:13;;;;;;;19.38;9.82;;;24.90;96.10;;;;;;5114136;28;20032;-57
2022/09/10 07:26:42;;;;;;;15.85;8.02;;;24.90;98.20;;;;;;5113986;28;20113;-57
2022/09/10 07:29:08;;;;;;;7.45;3.75;;;25.00;98.80;;;;;;5112506;28;20062;-57
2022/09/10 07:31:37;;;;;;;9.82;3.08;;;24.70;94.40;;;;;;5114056;28;20500;-57
2022/09/10 07:34:08;;;;;;;6.80;2.70;;;25.10;94.40;;;;;;5113973;28;20053;-57
2022/09/10 07:36:35;;;;;;;4.18;1.83;;;25.20;93.60;;;;;;5114291;28;20024;-57
2022/09/10 07:39:03;;;;;;;3.13;1.42;;;25.70;93.50;;;;;;5114547;28;20027;-57
2022/09/10 07:41:33;;;;;;;8.25;2.60;;;26.20;90.20;;;;;;5113841;28;20027;-57
2022/09/10 07:44:01;;;;;;;5.90;2.10;;;26.20;89.10;;;;;;5115133;28;20031;-58
2022/09/10 07:46:34;;;;;;;4.75;1.80;;;25.90;83.80;;;;;;5115136;28;20549;-57
2022/09/10 07:49:02;;;;;;;4.82;2.22;;;26.00;87.00;;;;;;5113939;28;20384;-58
2022/09/10 07:51:33;;;;;;;4.97;1.73;;;26.70;90.50;;;;;;5113844;28;20082;-58
2022/09/10 07:54:00;;;;;;;10.20;2.40;;;26.80;81.20;;;;;;5113721;28;20030;-58
2022/09/10 07:56:33;;;;;;;3.42;1.52;;;27.10;86.50;;;;;;5113121;28;20080;-57
2022/09/10 07:59:01;;;;;;;5.88;1.48;;;26.80;82.40;;;;;;5113709;28;20031;-58
2022/09/10 08:01:31;;;;;;;13.32;2.10;;;27.30;86.50;;;;;;5113740;28;20050;-58
2022/09/10 08:03:59;;;;;;;4.30;1.50;;;27.50;83.20;;;;;;5113665;28;20043;-58
2022/09/10 08:06:27;;;;;;;6.82;1.35;;;27.40;80.10;;;;;;5113368;28;20063;-58
2022/09/10 08:08:53;;;;;;;4.72;1.50;;;27.10;75.80;;;;;;5113618;28;20023;-58
2022/09/10 08:11:20;;;;;;;2.42;1.15;;;27.60;80.00;;;;;;5113623;28;20091;-58
2022/09/10 08:13:52;;;;;;;2.28;0.80;;;27.40;75.20;;;;;;5113609;28;20119;-58
2022/09/10 08:16:23;;;;;;;6.75;1.50;;;27.30;75.30;;;;;;5115008;28;20376;-58
2022/09/10 08:18:50;;;;;;;1.92;0.80;;;27.40;75.10;;;;;;5113361;28;20054;-58
2022/09/10 08:21:18;;;;;;;1.73;0.80;;;27.50;74.30;;;;;;5113381;28;20076;-58
2022/09/10 08:23:50;;;;;;;5.20;1.23;;;28.20;71.50;;;;;;5076661;28;20032;-58
2022/09/10 08:26:17;;;;;;;3.10;0.98;;;27.90;70.80;;;;;;5092836;28;20027;-58
2022/09/10 08:28:46;;;;;;;6.25;1.50;;;28.20;71.30;;;;;;5093186;28;20020;-58
2022/09/10 08:31:15;;;;;;;6.25;1.30;;;28.30;70.40;;;;;;5092906;28;20036;-58
2022/09/10 08:33:53;;;;;;;5.35;1.45;;;28.20;69.70;;;;;;5092911;28;20107;-58
2022/09/10 08:36:22;;;;;;;6.05;2.03;;;28.00;69.70;;;;;;5093009;28;20124;-58
2022/09/10 08:38:49;;;;;;;3.72;0.90;;;28.10;68.70;;;;;;5094292;28;20104;-58
2022/09/10 08:41:30;;;;;;;5.35;1.17;;;28.30;67.90;;;;;;5094203;28;20025;-58
2022/09/10 08:44:04;;;;;;;1.90;1.00;;;28.60;67.90;;;;;;5099856;28;20032;-58
2022/09/10 08:46:48;;;;;;;4.10;0.93;;;29.40;68.20;;;;;;5112910;28;20032;-58
2022/09/10 08:49:33;;;;;;;2.35;1.05;;;29.30;65.90;;;;;;5113148;28;20058;-58
2022/09/10 08:52:20;;;;;;;1.45;1.17;;;28.90;66.70;;;;;;5114249;28;20112;-58
2022/09/10 08:55:08;;;;;;;4.60;1.42;;;29.00;66.40;;;;;;5112965;28;20035;-58
2022/09/10 08:58:05;;;;;;;1.35;1.00;;;28.80;66.00;;;;;;5113229;28;20055;-58
2022/09/10 09:00:38;;;;;;;1.88;1.10;;;29.20;64.80;;;;;;5113046;28;20031;-58
2022/09/10 09:03:46;;;;;;;4.75;1.38;;;28.90;65.50;;;;;;5113220;28;20036;-58
2022/09/10 09:06:41;;;;;;;1.58;0.90;;;28.40;65.70;;;;;;5091488;28;20074;-58
2022/09/10 09:09:11;;;;;;;3.80;0.90;;;28.40;64.50;;;;;;5102872;28;20082;-58
2022/09/10 09:11:39;;;;;;;3.03;1.00;;;28.50;64.20;;;;;;5117975;28;20073;-58
2022/09/10 09:14:36;;;;;;;2.80;1.05;;;28.90;66.80;;;;;;5116699;28;20046;-58
2022/09/10 09:17:38;;;;;;;6.13;1.25;;;29.00;64.10;;;;;;5116310;28;20031;-58
2022/09/10 09:20:14;;;;;;;3.38;0.95;;;28.90;64.50;;;;;;5103369;28;20044;-58
2022/09/10 09:23:17;;;;;;;5.07;1.20;;;28.70;64.60;;;;;;5116673;28;20031;-58
2022/09/10 09:25:46;;;;;;;2.08;1.15;;;28.40;64.80;;;;;;5112462;28;20119;-58
2022/09/10 09:28:39;;;;;;;4.32;0.88;;;28.70;62.30;;;;;;5117670;28;20464;-58
2022/09/10 09:31:41;;;;;;;4.18;1.60;;;28.40;62.30;;;;;;5116142;28;20480;-58
2022/09/10 09:34:18;;;;;;;3.50;1.35;;;28.50;63.70;;;;;;5106093;28;20092;-58
2022/09/10 09:36:50;;;;;;;3.78;1.35;;;29.00;64.80;;;;;;5116180;28;20027;-58
2022/09/10 09:39:29;;;;;;;2.17;0.98;;;29.00;61.80;;;;;;5116292;28;20051;-58
2022/09/10 09:42:17;;;;;;;7.65;1.30;;;28.70;61.70;;;;;;5117080;28;20611;-58
2022/09/10 09:45:17;;;;;;;2.83;0.90;;;28.40;62.30;;;;;;5116049;28;20393;-58
2022/09/10 09:47:46;;;;;;;2.33;0.80;;;28.50;62.60;;;;;;5117455;28;20030;-58
2022/09/10 09:50:13;;;;;;;5.57;1.30;;;28.50;60.30;;;;;;5115766;28;20118;-58
2022/09/10 09:52:42;;;;;;;6.30;1.63;;;28.40;61.20;;;;;;5117186;28;20028;-58
2022/09/10 09:55:37;;;;;;;1.65;0.95;;;28.40;62.20;;;;;;5117371;27;20027;-58
2022/09/10 09:58:25;;;;;;;3.13;1.20;;;28.50;60.90;;;;;;5117202;28;20125;-58
2022/09/10 10:01:03;;;;;;;3.88;0.80;;;28.90;60.70;;;;;;5117005;28;20040;-58
2022/09/10 10:04:00;;;;;;;3.53;0.80;;;28.90;61.00;;;;;;5116792;28;20437;-58
2022/09/10 10:06:33;;;;;;;1.67;1.02;;;28.20;61.40;;;;;;5116808;28;20084;-58
2022/09/10 10:09:00;;;;;;;4.93;1.50;;;27.80;62.00;;;;;;5115717;28;20032;-58
2022/09/10 10:11:58;;;;;;;3.50;1.23;;;28.50;65.00;;;;;;5116776;28;20122;-58
2022/09/10 10:14:38;;;;;;;5.32;1.00;;;28.80;61.90;;;;;;5116749;28;20035;-58
2022/09/10 10:17:31;;;;;;;5.07;2.25;;;29.30;58.90;;;;;;5116343;28;20055;-58
2022/09/10 10:20:03;;;;;;;3.28;1.70;;;29.70;61.30;;;;;;5116138;28;20041;-58
2022/09/10 10:22:30;;;;;;;2.90;1.38;;;28.90;61.00;;;;;;5116515;28;20405;-58
2022/09/10 10:24:59;;;;;;;5.60;2.20;;;28.80;63.50;;;;;;5116795;28;20085;-59
2022/09/10 10:27:32;;;;;;;5.57;2.00;;;28.60;61.10;;;;;;5116440;28;20059;-58
2022/09/10 10:30:00;;;;;;;5.32;1.90;;;27.90;62.70;;;;;;5116474;28;20030;-58
2022/09/10 10:32:54;;;;;;;5.03;1.73;;;27.90;63.50;;;;;;5116440;28;20058;-59
2022/09/10 10:35:43;;;;;;;2.35;1.10;;;27.60;64.90;;;;;;5116485;28;20397;-58
2022/09/10 10:38:49;;;;;;;2.70;1.13;;;27.10;62.50;;;;;;5116296;28;20039;-58
2022/09/10 10:41:30;;;;;;;6.10;1.63;;;26.60;66.40;;;;;;5116163;28;20035;-58
2022/09/10 10:44:08;;;;;;;6.55;1.05;;;26.20;65.60;;;;;;5116167;28;20043;-58
2022/09/10 10:46:34;;;;;;;2.45;1.00;;;26.10;67.30;;;;;;5116122;28;20042;-58
2022/09/10 10:49:33;;;;;;;2.45;0.98;;;26.30;67.70;;;;;;5114899;28;20027;-58
2022/09/10 10:52:09;;;;;;;3.90;1.23;;;26.20;69.50;;;;;;5116032;28;20050;-58
2022/09/10 10:54:55;;;;;;;4.07;1.23;;;26.40;67.30;;;;;;5116117;28;20027;-58
2022/09/10 10:57:42;;;;;;;6.53;1.27;;;26.60;66.90;;;;;;5115486;28;20549;-58
2022/09/10 11:00:14;;;;;;;5.93;1.10;;;25.90;66.10;;;;;;5115852;28;20092;-58
2022/09/10 11:03:01;;;;;;;1.63;1.10;;;26.10;66.00;;;;;;5115601;28;20034;-58
2022/09/10 11:05:37;;;;;;;7.47;1.38;;;26.20;70.10;;;;;;5115980;28;20088;-58
2022/09/10 11:08:32;;;;;;;3.15;1.30;;;26.30;67.40;;;;;;5115642;28;20028;-58
2022/09/10 11:11:13;;;;;;;2.85;0.95;;;26.60;67.20;;;;;;5112756;28;20092;-58
2022/09/10 11:13:52;;;;;;;3.92;1.00;;;26.90;64.20;;;;;;5115603;28;20441;-58
2022/09/10 11:16:47;;;;;;;4.55;1.10;;;26.80;63.10;;;;;;5115691;28;20047;-58
2022/09/10 11:19:25;;;;;;;3.85;1.40;;;27.40;64.70;;;;;;5112479;28;20036;-58
2022/09/10 11:22:00;;;;;;;2.95;0.95;;;27.90;65.60;;;;;;5115246;28;20023;-58
2022/09/10 11:24:33;;;;;;;1.75;0.90;;;28.30;61.50;;;;;;5115541;28;20087;-58
2022/09/10 11:27:05;;;;;;;2.90;1.20;;;28.70;60.70;;;;;;5115275;28;20487;-58
2022/09/10 11:29:42;;;;;;;5.43;1.05;;;29.30;60.70;;;;;;5115573;28;20020;-58
2022/09/10 11:32:30;;;;;;;2.20;1.13;;;29.60;59.20;;;;;;5114619;28;20023;-58
2022/09/10 11:35:20;;;;;;;5.00;1.50;;;29.80;59.00;;;;;;5115462;28;20055;-58
2022/09/10 11:37:52;;;;;;;1.83;1.20;;;29.90;60.50;;;;;;5094637;28;20037;-58
2022/09/10 11:40:46;;;;;;;2.25;0.90;;;29.50;58.50;;;;;;5114808;28;20333;-58
2022/09/10 11:43:27;;;;;;;4.70;1.60;;;28.90;60.10;;;;;;5115243;28;20177;-58
2022/09/10 11:46:01;;;;;;;5.07;1.20;;;29.50;60.20;;;;;;5113818;28;20088;-58
2022/09/10 11:48:37;;;;;;;2.35;0.75;;;29.30;58.70;;;;;;5115397;28;20027;-58
2022/09/10 11:51:24;;;;;;;3.70;1.25;;;29.30;59.60;;;;;;5114865;28;20043;-58
2022/09/10 11:53:52;;;;;;;4.78;1.48;;;28.60;58.40;;;;;;5115082;28;20046;-58
2022/09/10 11:56:21;;;;;;;1.77;1.02;;;28.30;59.60;;;;;;5115008;28;20070;-58
2022/09/10 11:58:53;;;;;;;2.50;1.30;;;28.10;60.60;;;;;;5115092;28;20031;-58
2022/09/10 12:01:50;;;;;;;5.68;0.80;;;28.30;60.10;;;;;;5115030;28;20028;-58
2022/09/10 12:04:31;;;;;;;2.78;0.90;;;28.60;59.40;;;;;;5114895;28;20024;-58
2022/09/10 12:07:09;;;;;;;4.68;1.10;;;28.70;58.80;;;;;;5114970;28;20027;-58
2022/09/10 12:09:50;;;;;;;5.65;1.50;;;28.50;57.80;;;;;;5114968;28;20083;-58
2022/09/10 12:12:34;;;;;;;4.43;1.73;;;28.10;58.20;;;;;;5114811;28;20040;-58
2022/09/10 12:15:06;;;;;;;3.13;1.40;;;27.60;59.70;;;;;;5114694;28;20132;-58
2022/09/10 12:17:37;;;;;;;3.33;1.20;;;27.40;60.10;;;;;;5114932;28;20103;-58
2022/09/10 12:20:05;;;;;;;10.20;1.80;;;27.50;62.30;;;;;;5114652;28;20055;-58
2022/09/10 12:22:39;;;;;;;2.70;1.00;;;27.40;62.50;;;;;;5114802;28;20038;-58
2022/09/10 12:25:21;;;;;;;6.70;1.35;;;27.40;66.10;;;;;;5114817;28;20027;-58
2022/09/10 12:27:48;;;;;;;6.03;1.60;;;27.30;64.30;;;;;;5114624;28;20477;-58
2022/09/10 12:30:27;;;;;;;7.15;2.28;;;27.20;63.40;;;;;;5114726;28;20032;-58
2022/09/10 12:32:59;;;;;;;4.05;1.27;;;27.40;65.60;;;;;;5114713;28;20109;-58
2022/09/10 12:35:31;;;;;;;4.30;1.40;;;27.70;64.00;;;;;;5114935;28;20049;-58
2022/09/10 12:38:35;;;;;;;4.40;1.75;;;28.10;61.80;;;;;;5114608;28;20376;-58
2022/09/10 12:41:07;;;;;;;2.72;1.27;;;28.60;60.40;;;;;;5114692;28;20050;-58
2022/09/10 12:43:39;;;;;;;4.32;1.25;;;29.00;62.00;;;;;;5118168;28;20028;-58
2022/09/10 12:46:08;;;;;;;6.07;1.95;;;29.30;59.00;;;;;;5118569;28;20039;-58
2022/09/10 12:48:38;;;;;;;2.00;1.15;;;29.40;57.00;;;;;;5118382;28;20028;-58
2022/09/10 12:51:19;;;;;;;1.83;1.02;;;29.50;57.10;;;;;;5118371;28;20047;-58
2022/09/10 12:53:54;;;;;;;;;;;29.50;56.80;;;;;;5117534;28;20040;-58
2022/09/10 12:56:28;;;;;;;4.00;1.17;;;29.10;56.10;;;;;;5118638;28;19912;-58
2022/09/10 12:59:10;;;;;;;5.32;1.42;;;28.80;56.80;;;;;;5118125;28;20059;-58
2022/09/10 13:01:41;;;;;;;4.95;1.50;;;28.80;59.10;;;;;;5118236;28;20054;-58
2022/09/10 13:04:29;;;;;;;3.10;1.13;;;29.00;56.50;;;;;;5118118;27;20026;-58
2022/09/10 13:07:18;;;;;;;5.13;0.80;;;28.90;58.00;;;;;;5118430;27;20031;-58
2022/09/10 13:09:54;;;;;;;4.90;1.20;;;29.30;57.60;;;;;;5118241;28;20036;-58